sensor_id;sensor_type;location;lat;lon;timestamp;P1;durP1;ratioP1;P2;durP2;ratioP2
1691;SDS011;843;52.054;8.552;2024-03-02T00:01:18;3.57;;;3.43;;
1691;SDS011;843;52.054;8.552;2024-03-02T00:03:44;3.67;;;3.53;;
1691;SDS011;843;52.054;8.552;2024-03-02T00:06:11;2.93;;;2.80;;
1691;SDS011;843;52.054;8.552;2024-03-02T00:08:37;3.10;;;3.00;;
1691;SDS011;843;52.054;8.552;2024-03-02T00:11:04;6.13;;;5.57;;
1691;SDS011;843;52.054;8.552;2024-03-02T00:13:32;4.20;;;4.00;;
1691;SDS011;843;52.054;8.552;2024-03-02T00:15:58;5.50;;;4.93;;
1691;SDS011;843;52.054;8.552;2024-03-02T00:18:25;5.57;;;5.03;;
1691;SDS011;843;52.054;8.552;2024-03-02T00:20:52;3.60;;;3.30;;
1691;SDS011;843;52.054;8.552;2024-03-02T00:23:19;5.10;;;4.70;;
1691;SDS011;843;52.054;8.552;2024-03-02T00:25:47;5.90;;;5.37;;
1691;SDS011;843;52.054;8.552;2024-03-02T00:28:15;5.53;;;5.13;;
1691;SDS011;843;52.054;8.552;2024-03-02T00:31:01;4.40;;;4.00;;
1691;SDS011;843;52.054;8.552;2024-03-02T00:33:29;2.93;;;2.83;;
1691;SDS011;843;52.054;8.552;2024-03-02T00:35:56;3.30;;;3.20;;
1691;SDS011;843;52.054;8.552;2024-03-02T00:38:24;5.30;;;5.00;;
1691;SDS011;843;52.054;8.552;2024-03-02T00:40:51;4.00;;;3.80;;
1691;SDS011;843;52.054;8.552;2024-03-02T00:46:00;7.10;;;6.50;;
1691;SDS011;843;52.054;8.552;2024-03-02T00:48:26;4.03;;;3.83;;
1691;SDS011;843;52.054;8.552;2024-03-02T00:50:53;3.43;;;3.33;;
1691;SDS011;843;52.054;8.552;2024-03-02T00:53:20;4.70;;;4.50;;
1691;SDS011;843;52.054;8.552;2024-03-02T00:55:48;3.27;;;3.07;;
1691;SDS011;843;52.054;8.552;2024-03-02T00:58:15;5.07;;;4.63;;
1691;SDS011;843;52.054;8.552;2024-03-02T01:00:41;3.37;;;3.17;;
1691;SDS011;843;52.054;8.552;2024-03-02T01:03:09;3.23;;;3.13;;
1691;SDS011;843;52.054;8.552;2024-03-02T01:05:36;3.60;;;3.50;;
1691;SDS011;843;52.054;8.552;2024-03-02T01:08:03;5.00;;;4.70;;
1691;SDS011;843;52.054;8.552;2024-03-02T01:10:29;4.60;;;4.40;;
1691;SDS011;843;52.054;8.552;2024-03-02T01:12:56;3.43;;;3.33;;
1691;SDS011;843;52.054;8.552;2024-03-02T01:15:22;3.60;;;3.50;;
1691;SDS011;843;52.054;8.552;2024-03-02T01:17:49;5.87;;;5.47;;
1691;SDS011;843;52.054;8.552;2024-03-02T01:20:17;3.70;;;3.60;;
1691;SDS011;843;52.054;8.552;2024-03-02T01:22:43;3.40;;;3.30;;
1691;SDS011;843;52.054;8.552;2024-03-02T01:25:10;5.17;;;4.77;;
1691;SDS011;843;52.054;8.552;2024-03-02T01:27:36;4.63;;;4.20;;
1691;SDS011;843;52.054;8.552;2024-03-02T01:30:03;4.37;;;4.07;;
1691;SDS011;843;52.054;8.552;2024-03-02T01:32:30;6.50;;;6.00;;
1691;SDS011;843;52.054;8.552;2024-03-02T01:34:56;5.83;;;5.00;;
1691;SDS011;843;52.054;8.552;2024-03-02T01:37:24;3.03;;;2.93;;
1691;SDS011;843;52.054;8.552;2024-03-02T01:39:50;16.30;;;7.57;;
1691;SDS011;843;52.054;8.552;2024-03-02T01:42:16;5.37;;;4.93;;
1691;SDS011;843;52.054;8.552;2024-03-02T01:44:44;5.60;;;4.80;;
1691;SDS011;843;52.054;8.552;2024-03-02T01:47:10;3.07;;;2.97;;
1691;SDS011;843;52.054;8.552;2024-03-02T01:49:37;7.40;;;5.33;;
1691;SDS011;843;52.054;8.552;2024-03-02T01:52:04;5.57;;;5.07;;
1691;SDS011;843;52.054;8.552;2024-03-02T01:54:31;6.17;;;5.60;;
1691;SDS011;843;52.054;8.552;2024-03-02T01:56:58;3.67;;;3.57;;
1691;SDS011;843;52.054;8.552;2024-03-02T01:59:24;2.80;;;2.70;;
1691;SDS011;843;52.054;8.552;2024-03-02T02:01:51;4.53;;;4.30;;
1691;SDS011;843;52.054;8.552;2024-03-02T02:04:17;6.23;;;5.63;;
1691;SDS011;843;52.054;8.552;2024-03-02T02:06:46;7.30;;;5.57;;
1691;SDS011;843;52.054;8.552;2024-03-02T02:09:13;5.37;;;4.97;;
1691;SDS011;843;52.054;8.552;2024-03-02T02:11:40;6.07;;;5.53;;
1691;SDS011;843;52.054;8.552;2024-03-02T02:14:07;4.90;;;4.70;;
1691;SDS011;843;52.054;8.552;2024-03-02T02:16:33;6.23;;;5.70;;
1691;SDS011;843;52.054;8.552;2024-03-02T02:19:00;6.43;;;5.73;;
1691;SDS011;843;52.054;8.552;2024-03-02T02:21:27;4.73;;;4.43;;
1691;SDS011;843;52.054;8.552;2024-03-02T02:23:54;5.87;;;5.37;;
1691;SDS011;843;52.054;8.552;2024-03-02T02:26:20;7.90;;;7.10;;
1691;SDS011;843;52.054;8.552;2024-03-02T02:28:47;5.90;;;5.40;;
1691;SDS011;843;52.054;8.552;2024-03-02T02:31:13;6.43;;;5.83;;
1691;SDS011;843;52.054;8.552;2024-03-02T02:33:40;7.10;;;6.40;;
1691;SDS011;843;52.054;8.552;2024-03-02T02:36:06;4.97;;;4.67;;
1691;SDS011;843;52.054;8.552;2024-03-02T02:38:35;5.20;;;4.90;;
1691;SDS011;843;52.054;8.552;2024-03-02T02:41:02;5.73;;;5.23;;
1691;SDS011;843;52.054;8.552;2024-03-02T02:43:29;5.67;;;5.37;;
1691;SDS011;843;52.054;8.552;2024-03-02T02:45:55;6.30;;;5.80;;
1691;SDS011;843;52.054;8.552;2024-03-02T02:48:21;4.27;;;4.07;;
1691;SDS011;843;52.054;8.552;2024-03-02T02:50:48;5.40;;;5.10;;
1691;SDS011;843;52.054;8.552;2024-03-02T02:53:14;6.40;;;5.90;;
1691;SDS011;843;52.054;8.552;2024-03-02T02:55:42;4.37;;;3.97;;
1691;SDS011;843;52.054;8.552;2024-03-02T02:58:08;5.27;;;4.97;;
1691;SDS011;843;52.054;8.552;2024-03-02T03:00:35;6.40;;;5.90;;
1691;SDS011;843;52.054;8.552;2024-03-02T03:03:01;3.70;;;3.40;;
1691;SDS011;843;52.054;8.552;2024-03-02T03:05:28;6.20;;;5.80;;
1691;SDS011;843;52.054;8.552;2024-03-02T03:07:54;5.60;;;5.30;;
1691;SDS011;843;52.054;8.552;2024-03-02T03:10:20;5.20;;;4.67;;
1691;SDS011;843;52.054;8.552;2024-03-02T03:12:49;5.83;;;5.43;;
1691;SDS011;843;52.054;8.552;2024-03-02T03:15:16;5.87;;;5.47;;
1691;SDS011;843;52.054;8.552;2024-03-02T03:17:44;4.10;;;3.90;;
1691;SDS011;843;52.054;8.552;2024-03-02T03:20:12;5.73;;;5.43;;
1691;SDS011;843;52.054;8.552;2024-03-02T03:22:40;6.00;;;5.53;;
1691;SDS011;843;52.054;8.552;2024-03-02T03:25:07;4.93;;;4.60;;
1691;SDS011;843;52.054;8.552;2024-03-02T03:27:33;5.13;;;4.80;;
1691;SDS011;843;52.054;8.552;2024-03-02T03:30:01;5.13;;;4.77;;
1691;SDS011;843;52.054;8.552;2024-03-02T03:32:28;6.60;;;6.00;;
1691;SDS011;843;52.054;8.552;2024-03-02T03:34:54;11.47;;;7.60;;
1691;SDS011;843;52.054;8.552;2024-03-02T03:37:20;6.30;;;5.43;;
1691;SDS011;843;52.054;8.552;2024-03-02T03:39:47;8.63;;;6.70;;
1691;SDS011;843;52.054;8.552;2024-03-02T03:42:13;7.83;;;7.13;;
1691;SDS011;843;52.054;8.552;2024-03-02T03:44:40;3.50;;;3.40;;
1691;SDS011;843;52.054;8.552;2024-03-02T03:47:08;6.47;;;6.00;;
1691;SDS011;843;52.054;8.552;2024-03-02T03:49:34;10.37;;;7.87;;
1691;SDS011;843;52.054;8.552;2024-03-02T03:52:01;6.17;;;4.57;;
1691;SDS011;843;52.054;8.552;2024-03-02T03:54:27;3.30;;;3.20;;
1691;SDS011;843;52.054;8.552;2024-03-02T03:56:53;4.70;;;4.40;;
1691;SDS011;843;52.054;8.552;2024-03-02T03:59:20;5.47;;;5.20;;
1691;SDS011;843;52.054;8.552;2024-03-02T04:01:46;11.67;;;8.13;;
1691;SDS011;843;52.054;8.552;2024-03-02T04:04:14;5.17;;;4.77;;
1691;SDS011;843;52.054;8.552;2024-03-02T04:06:40;5.00;;;4.60;;
1691;SDS011;843;52.054;8.552;2024-03-02T04:09:07;6.67;;;6.03;;
1691;SDS011;843;52.054;8.552;2024-03-02T04:11:33;6.40;;;5.80;;
1691;SDS011;843;52.054;8.552;2024-03-02T04:13:59;9.87;;;7.97;;
1691;SDS011;843;52.054;8.552;2024-03-02T04:16:26;8.60;;;7.90;;
1691;SDS011;843;52.054;8.552;2024-03-02T04:18:53;3.87;;;3.67;;
1691;SDS011;843;52.054;8.552;2024-03-02T04:21:22;8.97;;;8.10;;
1691;SDS011;843;52.054;8.552;2024-03-02T04:23:48;6.50;;;4.80;;
1691;SDS011;843;52.054;8.552;2024-03-02T04:26:15;5.03;;;4.73;;
1691;SDS011;843;52.054;8.552;2024-03-02T04:28:47;9.60;;;6.73;;
1691;SDS011;843;52.054;8.552;2024-03-02T04:31:14;6.00;;;5.50;;
1691;SDS011;843;52.054;8.552;2024-03-02T04:33:40;8.23;;;7.33;;
1691;SDS011;843;52.054;8.552;2024-03-02T04:36:07;8.17;;;6.87;;
1691;SDS011;843;52.054;8.552;2024-03-02T04:38:36;4.23;;;4.03;;
1691;SDS011;843;52.054;8.552;2024-03-02T04:41:03;9.70;;;7.00;;
1691;SDS011;843;52.054;8.552;2024-03-02T04:43:29;10.43;;;8.77;;
1691;SDS011;843;52.054;8.552;2024-03-02T04:45:57;4.33;;;4.10;;
1691;SDS011;843;52.054;8.552;2024-03-02T04:48:23;11.10;;;7.07;;
1691;SDS011;843;52.054;8.552;2024-03-02T04:50:50;13.60;;;9.90;;
1691;SDS011;843;52.054;8.552;2024-03-02T04:53:16;4.37;;;4.10;;
1691;SDS011;843;52.054;8.552;2024-03-02T04:55:44;7.50;;;6.10;;
1691;SDS011;843;52.054;8.552;2024-03-02T04:58:28;12.13;;;5.87;;
1691;SDS011;843;52.054;8.552;2024-03-02T05:00:54;4.70;;;4.40;;
1691;SDS011;843;52.054;8.552;2024-03-02T05:03:21;4.70;;;4.30;;
1691;SDS011;843;52.054;8.552;2024-03-02T05:05:48;6.97;;;6.37;;
1691;SDS011;843;52.054;8.552;2024-03-02T05:08:14;13.83;;;10.80;;
1691;SDS011;843;52.054;8.552;2024-03-02T05:10:42;7.13;;;3.77;;
1691;SDS011;843;52.054;8.552;2024-03-02T05:13:09;5.60;;;4.50;;
1691;SDS011;843;52.054;8.552;2024-03-02T05:15:35;11.50;;;10.27;;
1691;SDS011;843;52.054;8.552;2024-03-02T05:18:01;4.10;;;3.80;;
1691;SDS011;843;52.054;8.552;2024-03-02T05:20:30;6.10;;;5.33;;
1691;SDS011;843;52.054;8.552;2024-03-02T05:22:56;3.80;;;3.50;;
1691;SDS011;843;52.054;8.552;2024-03-02T05:25:23;2.77;;;2.67;;
1691;SDS011;843;52.054;8.552;2024-03-02T05:27:49;10.30;;;8.40;;
1691;SDS011;843;52.054;8.552;2024-03-02T05:30:17;4.03;;;3.80;;
1691;SDS011;843;52.054;8.552;2024-03-02T05:32:43;4.40;;;4.00;;
1691;SDS011;843;52.054;8.552;2024-03-02T05:35:10;6.10;;;5.50;;
1691;SDS011;843;52.054;8.552;2024-03-02T05:37:37;5.20;;;4.80;;
1691;SDS011;843;52.054;8.552;2024-03-02T05:40:04;10.00;;;8.50;;
1691;SDS011;843;52.054;8.552;2024-03-02T05:42:31;4.00;;;3.70;;
1691;SDS011;843;52.054;8.552;2024-03-02T05:44:58;15.20;;;8.63;;
1691;SDS011;843;52.054;8.552;2024-03-02T05:47:25;7.30;;;6.67;;
1691;SDS011;843;52.054;8.552;2024-03-02T05:49:52;4.93;;;4.53;;
1691;SDS011;843;52.054;8.552;2024-03-02T05:52:19;6.03;;;5.67;;
1691;SDS011;843;52.054;8.552;2024-03-02T05:54:45;5.80;;;5.33;;
1691;SDS011;843;52.054;8.552;2024-03-02T05:57:14;3.00;;;2.90;;
1691;SDS011;843;52.054;8.552;2024-03-02T05:59:56;5.07;;;4.27;;
1691;SDS011;843;52.054;8.552;2024-03-02T06:02:23;12.93;;;7.33;;
1691;SDS011;843;52.054;8.552;2024-03-02T06:04:51;10.23;;;7.73;;
1691;SDS011;843;52.054;8.552;2024-03-02T06:07:17;4.23;;;3.40;;
1691;SDS011;843;52.054;8.552;2024-03-02T06:09:44;3.50;;;3.40;;
1691;SDS011;843;52.054;8.552;2024-03-02T06:12:13;6.33;;;5.73;;
1691;SDS011;843;52.054;8.552;2024-03-02T06:14:40;3.03;;;2.93;;
1691;SDS011;843;52.054;8.552;2024-03-02T06:17:06;6.40;;;5.70;;
1691;SDS011;843;52.054;8.552;2024-03-02T06:19:32;5.33;;;4.93;;
1691;SDS011;843;52.054;8.552;2024-03-02T06:22:00;11.77;;;10.03;;
1691;SDS011;843;52.054;8.552;2024-03-02T06:24:26;4.30;;;4.00;;
1691;SDS011;843;52.054;8.552;2024-03-02T06:26:53;11.27;;;4.00;;
1691;SDS011;843;52.054;8.552;2024-03-02T06:29:19;8.10;;;5.50;;
1691;SDS011;843;52.054;8.552;2024-03-02T06:31:46;3.20;;;3.03;;
1691;SDS011;843;52.054;8.552;2024-03-02T06:34:13;11.17;;;9.90;;
1691;SDS011;843;52.054;8.552;2024-03-02T06:36:39;6.67;;;5.00;;
1691;SDS011;843;52.054;8.552;2024-03-02T06:39:09;3.30;;;3.20;;
1691;SDS011;843;52.054;8.552;2024-03-02T06:41:35;11.20;;;9.27;;
1691;SDS011;843;52.054;8.552;2024-03-02T06:44:02;7.73;;;6.80;;
1691;SDS011;843;52.054;8.552;2024-03-02T06:46:28;3.80;;;3.60;;
1691;SDS011;843;52.054;8.552;2024-03-02T06:48:55;5.80;;;4.57;;
1691;SDS011;843;52.054;8.552;2024-03-02T06:51:21;9.53;;;7.53;;
1691;SDS011;843;52.054;8.552;2024-03-02T06:53:48;8.73;;;7.83;;
1691;SDS011;843;52.054;8.552;2024-03-02T06:56:15;5.43;;;5.03;;
1691;SDS011;843;52.054;8.552;2024-03-02T06:58:42;4.47;;;4.27;;
1691;SDS011;843;52.054;8.552;2024-03-02T07:01:09;3.90;;;3.70;;
1691;SDS011;843;52.054;8.552;2024-03-02T07:03:35;5.07;;;4.57;;
1691;SDS011;843;52.054;8.552;2024-03-02T07:06:02;9.67;;;7.87;;
1691;SDS011;843;52.054;8.552;2024-03-02T07:08:28;5.83;;;4.80;;
1691;SDS011;843;52.054;8.552;2024-03-02T07:10:55;3.73;;;3.57;;
1691;SDS011;843;52.054;8.552;2024-03-02T07:13:23;4.23;;;3.93;;
1691;SDS011;843;52.054;8.552;2024-03-02T07:15:49;5.37;;;5.07;;
1691;SDS011;843;52.054;8.552;2024-03-02T07:18:46;5.73;;;5.23;;
1691;SDS011;843;52.054;8.552;2024-03-02T07:21:16;8.87;;;7.50;;
1691;SDS011;843;52.054;8.552;2024-03-02T07:23:43;11.40;;;8.43;;
1691;SDS011;843;52.054;8.552;2024-03-02T07:26:09;5.90;;;5.50;;
1691;SDS011;843;52.054;8.552;2024-03-02T07:28:37;7.07;;;6.43;;
1691;SDS011;843;52.054;8.552;2024-03-02T07:31:04;3.73;;;3.33;;
1691;SDS011;843;52.054;8.552;2024-03-02T07:33:30;10.33;;;8.57;;
1691;SDS011;843;52.054;8.552;2024-03-02T07:35:57;9.60;;;7.33;;
1691;SDS011;843;52.054;8.552;2024-03-02T07:38:24;21.97;;;16.07;;
1691;SDS011;843;52.054;8.552;2024-03-02T07:40:50;10.93;;;10.20;;
1691;SDS011;843;52.054;8.552;2024-03-02T07:43:18;6.73;;;6.43;;
1691;SDS011;843;52.054;8.552;2024-03-02T07:45:46;10.17;;;9.03;;
1691;SDS011;843;52.054;8.552;2024-03-02T07:48:13;5.57;;;4.40;;
1691;SDS011;843;52.054;8.552;2024-03-02T07:50:39;4.17;;;3.93;;
1691;SDS011;843;52.054;8.552;2024-03-02T07:53:05;10.40;;;9.20;;
1691;SDS011;843;52.054;8.552;2024-03-02T07:55:32;3.43;;;3.30;;
1691;SDS011;843;52.054;8.552;2024-03-02T07:57:59;4.00;;;3.80;;
1691;SDS011;843;52.054;8.552;2024-03-02T08:00:26;2.93;;;2.77;;
1691;SDS011;843;52.054;8.552;2024-03-02T08:02:54;7.37;;;6.70;;
1691;SDS011;843;52.054;8.552;2024-03-02T08:05:21;8.03;;;7.30;;
1691;SDS011;843;52.054;8.552;2024-03-02T08:07:47;7.57;;;5.93;;
1691;SDS011;843;52.054;8.552;2024-03-02T08:10:17;5.10;;;4.70;;
1691;SDS011;843;52.054;8.552;2024-03-02T08:12:44;7.10;;;6.50;;
1691;SDS011;843;52.054;8.552;2024-03-02T08:15:10;7.70;;;7.30;;
1691;SDS011;843;52.054;8.552;2024-03-02T08:17:38;7.53;;;7.03;;
1691;SDS011;843;52.054;8.552;2024-03-02T08:20:08;8.90;;;8.17;;
1691;SDS011;843;52.054;8.552;2024-03-02T08:22:35;10.73;;;9.83;;
1691;SDS011;843;52.054;8.552;2024-03-02T08:25:01;9.97;;;9.07;;
1691;SDS011;843;52.054;8.552;2024-03-02T08:27:28;9.40;;;8.70;;
1691;SDS011;843;52.054;8.552;2024-03-02T08:29:54;9.87;;;9.07;;
1691;SDS011;843;52.054;8.552;2024-03-02T08:32:21;7.40;;;6.97;;
1691;SDS011;843;52.054;8.552;2024-03-02T08:34:47;6.70;;;6.23;;
1691;SDS011;843;52.054;8.552;2024-03-02T08:37:15;7.60;;;7.00;;
1691;SDS011;843;52.054;8.552;2024-03-02T08:39:41;9.17;;;8.33;;
1691;SDS011;843;52.054;8.552;2024-03-02T08:42:09;7.73;;;7.03;;
1691;SDS011;843;52.054;8.552;2024-03-02T08:44:36;7.67;;;7.07;;
1691;SDS011;843;52.054;8.552;2024-03-02T08:47:02;6.40;;;6.10;;
1691;SDS011;843;52.054;8.552;2024-03-02T08:49:29;7.97;;;7.37;;
1691;SDS011;843;52.054;8.552;2024-03-02T08:51:55;6.20;;;6.00;;
1691;SDS011;843;52.054;8.552;2024-03-02T08:54:23;9.00;;;8.27;;
1691;SDS011;843;52.054;8.552;2024-03-02T08:56:49;8.53;;;7.87;;
1691;SDS011;843;52.054;8.552;2024-03-02T08:59:16;5.77;;;5.57;;
1691;SDS011;843;52.054;8.552;2024-03-02T09:01:42;7.20;;;6.70;;
1691;SDS011;843;52.054;8.552;2024-03-02T09:04:10;7.53;;;6.93;;
1691;SDS011;843;52.054;8.552;2024-03-02T09:06:36;9.53;;;8.93;;
1691;SDS011;843;52.054;8.552;2024-03-02T09:09:03;8.60;;;8.00;;
1691;SDS011;843;52.054;8.552;2024-03-02T09:11:30;7.53;;;7.03;;
1691;SDS011;843;52.054;8.552;2024-03-02T09:13:57;8.30;;;7.70;;
1691;SDS011;843;52.054;8.552;2024-03-02T09:16:24;5.67;;;5.47;;
1691;SDS011;843;52.054;8.552;2024-03-02T09:18:55;12.17;;;11.20;;
1691;SDS011;843;52.054;8.552;2024-03-02T09:21:22;12.30;;;11.20;;
1691;SDS011;843;52.054;8.552;2024-03-02T09:23:48;11.77;;;10.83;;
1691;SDS011;843;52.054;8.552;2024-03-02T09:26:15;11.90;;;11.00;;
1691;SDS011;843;52.054;8.552;2024-03-02T09:28:43;11.97;;;10.97;;
1691;SDS011;843;52.054;8.552;2024-03-02T09:31:10;11.57;;;10.63;;
1691;SDS011;843;52.054;8.552;2024-03-02T09:33:37;12.00;;;11.00;;
1691;SDS011;843;52.054;8.552;2024-03-02T09:36:04;9.93;;;9.13;;
1691;SDS011;843;52.054;8.552;2024-03-02T09:38:31;10.73;;;9.93;;
1691;SDS011;843;52.054;8.552;2024-03-02T09:40:58;10.50;;;9.70;;
1691;SDS011;843;52.054;8.552;2024-03-02T09:43:25;10.93;;;10.03;;
1691;SDS011;843;52.054;8.552;2024-03-02T09:45:52;10.33;;;9.43;;
1691;SDS011;843;52.054;8.552;2024-03-02T09:48:19;9.63;;;8.90;;
1691;SDS011;843;52.054;8.552;2024-03-02T09:50:45;9.80;;;9.20;;
1691;SDS011;843;52.054;8.552;2024-03-02T09:53:12;10.23;;;9.53;;
1691;SDS011;843;52.054;8.552;2024-03-02T09:55:40;10.53;;;9.83;;
1691;SDS011;843;52.054;8.552;2024-03-02T09:58:08;10.80;;;9.90;;
1691;SDS011;843;52.054;8.552;2024-03-02T10:00:35;9.90;;;9.00;;
1691;SDS011;843;52.054;8.552;2024-03-02T10:03:03;11.23;;;10.23;;
1691;SDS011;843;52.054;8.552;2024-03-02T10:05:30;9.60;;;8.83;;
1691;SDS011;843;52.054;8.552;2024-03-02T10:08:00;15.43;;;14.33;;
1691;SDS011;843;52.054;8.552;2024-03-02T10:10:34;9.30;;;8.50;;
1691;SDS011;843;52.054;8.552;2024-03-02T10:13:03;10.60;;;9.60;;
1691;SDS011;843;52.054;8.552;2024-03-02T10:15:30;17.33;;;15.77;;
1691;SDS011;843;52.054;8.552;2024-03-02T10:17:56;11.17;;;10.27;;
1691;SDS011;843;52.054;8.552;2024-03-02T10:20:24;9.73;;;8.87;;
1691;SDS011;843;52.054;8.552;2024-03-02T10:22:51;9.03;;;8.33;;
1691;SDS011;843;52.054;8.552;2024-03-02T10:25:30;10.50;;;9.67;;
1691;SDS011;843;52.054;8.552;2024-03-02T10:27:57;12.00;;;11.10;;
1691;SDS011;843;52.054;8.552;2024-03-02T10:30:24;12.07;;;11.07;;
1691;SDS011;843;52.054;8.552;2024-03-02T10:32:51;12.33;;;11.30;;
1691;SDS011;843;52.054;8.552;2024-03-02T10:35:18;10.60;;;9.70;;
1691;SDS011;843;52.054;8.552;2024-03-02T10:37:47;10.83;;;10.00;;
1691;SDS011;843;52.054;8.552;2024-03-02T10:40:14;11.40;;;10.40;;
1691;SDS011;843;52.054;8.552;2024-03-02T10:42:41;11.30;;;10.40;;
1691;SDS011;843;52.054;8.552;2024-03-02T10:45:08;12.60;;;11.70;;
1691;SDS011;843;52.054;8.552;2024-03-02T10:47:35;11.67;;;10.77;;
1691;SDS011;843;52.054;8.552;2024-03-02T10:50:02;9.83;;;8.93;;
1691;SDS011;843;52.054;8.552;2024-03-02T10:52:33;12.03;;;11.10;;
1691;SDS011;843;52.054;8.552;2024-03-02T10:55:01;12.33;;;11.33;;
1691;SDS011;843;52.054;8.552;2024-03-02T10:57:31;10.83;;;10.00;;
1691;SDS011;843;52.054;8.552;2024-03-02T11:00:01;11.43;;;10.63;;
1691;SDS011;843;52.054;8.552;2024-03-02T11:02:28;11.07;;;10.27;;
1691;SDS011;843;52.054;8.552;2024-03-02T11:04:56;11.57;;;10.67;;
1691;SDS011;843;52.054;8.552;2024-03-02T11:07:22;10.70;;;10.00;;
1691;SDS011;843;52.054;8.552;2024-03-02T11:09:51;11.93;;;11.13;;
1691;SDS011;843;52.054;8.552;2024-03-02T11:12:23;11.33;;;10.60;;
1691;SDS011;843;52.054;8.552;2024-03-02T11:14:51;10.60;;;9.80;;
1691;SDS011;843;52.054;8.552;2024-03-02T11:17:18;10.10;;;9.30;;
1691;SDS011;843;52.054;8.552;2024-03-02T11:19:44;10.07;;;9.37;;
1691;SDS011;843;52.054;8.552;2024-03-02T11:22:11;10.13;;;9.43;;
1691;SDS011;843;52.054;8.552;2024-03-02T11:24:38;10.10;;;9.40;;
1691;SDS011;843;52.054;8.552;2024-03-02T11:27:05;9.87;;;9.17;;
1691;SDS011;843;52.054;8.552;2024-03-02T11:32:20;9.10;;;8.43;;
1691;SDS011;843;52.054;8.552;2024-03-02T11:34:47;10.60;;;9.20;;
1691;SDS011;843;52.054;8.552;2024-03-02T11:37:14;8.67;;;7.97;;
1691;SDS011;843;52.054;8.552;2024-03-02T11:39:41;8.83;;;8.23;;
1691;SDS011;843;52.054;8.552;2024-03-02T11:42:08;9.07;;;8.27;;
1691;SDS011;843;52.054;8.552;2024-03-02T11:44:35;9.50;;;8.80;;
1691;SDS011;843;52.054;8.552;2024-03-02T11:47:02;9.40;;;8.63;;
1691;SDS011;843;52.054;8.552;2024-03-02T11:49:38;9.80;;;9.20;;
1691;SDS011;843;52.054;8.552;2024-03-02T11:52:06;9.27;;;8.47;;
1691;SDS011;843;52.054;8.552;2024-03-02T11:54:33;9.10;;;8.40;;
1691;SDS011;843;52.054;8.552;2024-03-02T11:57:01;12.00;;;11.20;;
1691;SDS011;843;52.054;8.552;2024-03-02T11:59:27;12.07;;;11.27;;
1691;SDS011;843;52.054;8.552;2024-03-02T12:01:54;11.00;;;10.20;;
1691;SDS011;843;52.054;8.552;2024-03-02T12:04:21;11.10;;;10.20;;
1691;SDS011;843;52.054;8.552;2024-03-02T12:06:49;10.10;;;9.30;;
1691;SDS011;843;52.054;8.552;2024-03-02T12:09:20;10.40;;;9.60;;
1691;SDS011;843;52.054;8.552;2024-03-02T12:11:46;10.67;;;9.77;;
1691;SDS011;843;52.054;8.552;2024-03-02T12:14:13;8.83;;;8.13;;
1691;SDS011;843;52.054;8.552;2024-03-02T12:16:43;8.97;;;8.20;;
1691;SDS011;843;52.054;8.552;2024-03-02T12:19:10;7.97;;;7.37;;
1691;SDS011;843;52.054;8.552;2024-03-02T12:21:36;7.53;;;6.93;;
1691;SDS011;843;52.054;8.552;2024-03-02T12:24:04;10.30;;;9.50;;
1691;SDS011;843;52.054;8.552;2024-03-02T12:26:30;9.63;;;8.90;;
1691;SDS011;843;52.054;8.552;2024-03-02T12:28:57;9.43;;;8.77;;
1691;SDS011;843;52.054;8.552;2024-03-02T12:31:24;10.33;;;9.63;;
1691;SDS011;843;52.054;8.552;2024-03-02T12:33:50;9.50;;;8.80;;
1691;SDS011;843;52.054;8.552;2024-03-02T12:36:17;8.87;;;8.27;;
1691;SDS011;843;52.054;8.552;2024-03-02T12:38:44;9.67;;;8.77;;
1691;SDS011;843;52.054;8.552;2024-03-02T12:41:15;10.10;;;9.30;;
1691;SDS011;843;52.054;8.552;2024-03-02T12:43:42;9.50;;;8.70;;
1691;SDS011;843;52.054;8.552;2024-03-02T12:46:08;8.90;;;8.20;;
1691;SDS011;843;52.054;8.552;2024-03-02T12:48:34;10.53;;;9.63;;
1691;SDS011;843;52.054;8.552;2024-03-02T12:51:01;10.40;;;9.20;;
1691;SDS011;843;52.054;8.552;2024-03-02T12:53:28;9.60;;;8.77;;
1691;SDS011;843;52.054;8.552;2024-03-02T12:55:54;9.37;;;8.43;;
1691;SDS011;843;52.054;8.552;2024-03-02T12:58:22;8.90;;;8.17;;
1691;SDS011;843;52.054;8.552;2024-03-02T13:00:49;9.03;;;8.27;;
1691;SDS011;843;52.054;8.552;2024-03-02T13:03:17;10.10;;;9.10;;
1691;SDS011;843;52.054;8.552;2024-03-02T13:05:48;9.50;;;8.73;;
1691;SDS011;843;52.054;8.552;2024-03-02T13:08:14;9.50;;;8.70;;
1691;SDS011;843;52.054;8.552;2024-03-02T13:10:41;10.20;;;9.40;;
1691;SDS011;843;52.054;8.552;2024-03-02T13:13:07;10.13;;;9.10;;
1691;SDS011;843;52.054;8.552;2024-03-02T13:15:35;9.63;;;8.93;;
1691;SDS011;843;52.054;8.552;2024-03-02T13:18:01;10.47;;;9.50;;
1691;SDS011;843;52.054;8.552;2024-03-02T13:20:29;10.40;;;9.60;;
1691;SDS011;843;52.054;8.552;2024-03-02T13:22:56;9.20;;;8.50;;
1691;SDS011;843;52.054;8.552;2024-03-02T13:25:23;11.03;;;9.93;;
1691;SDS011;843;52.054;8.552;2024-03-02T13:27:49;9.87;;;8.97;;
1691;SDS011;843;52.054;8.552;2024-03-02T13:30:16;9.03;;;8.33;;
1691;SDS011;843;52.054;8.552;2024-03-02T13:32:44;7.67;;;7.07;;
1691;SDS011;843;52.054;8.552;2024-03-02T13:35:10;8.43;;;7.83;;
1691;SDS011;843;52.054;8.552;2024-03-02T13:37:37;7.60;;;7.10;;
1691;SDS011;843;52.054;8.552;2024-03-02T13:40:04;7.23;;;6.63;;
1691;SDS011;843;52.054;8.552;2024-03-02T13:42:30;7.37;;;6.77;;
1691;SDS011;843;52.054;8.552;2024-03-02T13:44:57;7.63;;;7.03;;
1691;SDS011;843;52.054;8.552;2024-03-02T13:47:23;6.70;;;6.20;;
1691;SDS011;843;52.054;8.552;2024-03-02T13:49:51;7.97;;;7.47;;
1691;SDS011;843;52.054;8.552;2024-03-02T13:52:18;9.23;;;7.80;;
1691;SDS011;843;52.054;8.552;2024-03-02T13:54:45;7.90;;;7.40;;
1691;SDS011;843;52.054;8.552;2024-03-02T13:57:12;7.93;;;7.43;;
1691;SDS011;843;52.054;8.552;2024-03-02T13:59:39;8.77;;;8.07;;
1691;SDS011;843;52.054;8.552;2024-03-02T14:02:05;8.30;;;7.80;;
1691;SDS011;843;52.054;8.552;2024-03-02T14:04:32;8.23;;;7.73;;
1691;SDS011;843;52.054;8.552;2024-03-02T14:07:01;8.77;;;8.17;;
1691;SDS011;843;52.054;8.552;2024-03-02T14:09:27;8.83;;;8.23;;
1691;SDS011;843;52.054;8.552;2024-03-02T14:11:54;7.97;;;7.57;;
1691;SDS011;843;52.054;8.552;2024-03-02T14:14:20;8.00;;;7.33;;
1691;SDS011;843;52.054;8.552;2024-03-02T14:16:46;8.03;;;7.50;;
1691;SDS011;843;52.054;8.552;2024-03-02T14:19:13;7.80;;;7.30;;
1691;SDS011;843;52.054;8.552;2024-03-02T14:21:39;8.43;;;7.83;;
1691;SDS011;843;52.054;8.552;2024-03-02T14:24:07;6.87;;;6.37;;
1691;SDS011;843;52.054;8.552;2024-03-02T14:26:34;7.23;;;6.73;;
1691;SDS011;843;52.054;8.552;2024-03-02T14:29:01;5.73;;;5.33;;
1691;SDS011;843;52.054;8.552;2024-03-02T14:31:28;6.17;;;5.77;;
1691;SDS011;843;52.054;8.552;2024-03-02T14:33:54;8.47;;;7.90;;
1691;SDS011;843;52.054;8.552;2024-03-02T14:36:21;7.33;;;6.93;;
1691;SDS011;843;52.054;8.552;2024-03-02T14:38:47;8.20;;;7.63;;
1691;SDS011;843;52.054;8.552;2024-03-02T14:41:15;7.03;;;6.53;;
1691;SDS011;843;52.054;8.552;2024-03-02T14:43:41;7.43;;;7.03;;
1691;SDS011;843;52.054;8.552;2024-03-02T14:46:08;7.47;;;6.97;;
1691;SDS011;843;52.054;8.552;2024-03-02T14:48:34;8.13;;;7.60;;
1691;SDS011;843;52.054;8.552;2024-03-02T14:51:01;7.43;;;6.93;;
1691;SDS011;843;52.054;8.552;2024-03-02T14:53:28;7.57;;;7.10;;
1691;SDS011;843;52.054;8.552;2024-03-02T14:55:54;7.90;;;7.30;;
1691;SDS011;843;52.054;8.552;2024-03-02T14:58:22;7.70;;;7.30;;
1691;SDS011;843;52.054;8.552;2024-03-02T15:00:48;6.10;;;5.80;;
1691;SDS011;843;52.054;8.552;2024-03-02T15:03:15;5.53;;;5.20;;
1691;SDS011;843;52.054;8.552;2024-03-02T15:05:41;6.67;;;6.27;;
1691;SDS011;843;52.054;8.552;2024-03-02T15:08:08;6.40;;;6.00;;
1691;SDS011;843;52.054;8.552;2024-03-02T15:10:34;6.60;;;6.20;;
1691;SDS011;843;52.054;8.552;2024-03-02T15:13:01;5.20;;;4.90;;
1691;SDS011;843;52.054;8.552;2024-03-02T15:15:29;5.53;;;5.13;;
1691;SDS011;843;52.054;8.552;2024-03-02T15:17:55;5.30;;;5.00;;
1691;SDS011;843;52.054;8.552;2024-03-02T15:20:22;5.60;;;5.10;;
1691;SDS011;843;52.054;8.552;2024-03-02T15:22:48;5.27;;;4.87;;
1691;SDS011;843;52.054;8.552;2024-03-02T15:25:15;5.97;;;5.47;;
1691;SDS011;843;52.054;8.552;2024-03-02T15:27:41;5.00;;;4.70;;
1691;SDS011;843;52.054;8.552;2024-03-02T15:30:08;5.53;;;5.13;;